Time;durP1;ratioP1;P1;durP2;ratioP2;P2;SDS_P1;SDS_P2;PMS_P1;PMS_P2;Temp;Humidity;BMP_temperature;BMP_pressure;BME280_temperature;BME280_humidity;BME280_pressure;Samples;Min_cycle;Max_cycle;Signal;HPM_P1;HPM_P2
2022/05/15 00:01:17;;;;;;;9.80;5.18;;;;;;;;;;6224379;28;20046;-72
2022/05/15 00:04:19;;;;;;;11.43;5.07;;;;;;;;;;6224585;28;20046;-71
2022/05/15 00:07:20;;;;;;;16.02;5.20;;;;;;;;;;6223867;28;20057;-71
2022/05/15 00:10:22;;;;;;;8.73;4.32;;;;;;;;;;6226153;28;20428;-71
2022/05/15 00:13:27;;;;;;;8.02;4.50;;;;;;;;;;6227175;28;20092;-71
2022/05/15 00:16:28;;;;;;;12.73;4.60;;;;;;;;;;6227739;28;20062;-71
2022/05/15 00:19:30;;;;;;;10.02;4.53;;;;;;;;;;6225159;28;20054;-71
2022/05/15 00:22:35;;;;;;;8.02;4.32;;;;;;;;;;6225019;28;20224;-71
2022/05/15 00:25:36;;;;;;;8.10;4.72;;;;;;;;;;6220721;28;20049;-71
2022/05/15 00:28:39;;;;;;;7.32;4.40;;;;;;;;;;6230280;28;20237;-72
2022/05/15 00:31:41;;;;;;;9.23;5.10;;;;;;;;;;6231733;28;20092;-71
2022/05/15 00:34:43;;;;;;;6.72;3.97;;;;;;;;;;6228693;28;20053;-72
2022/05/15 00:37:44;;;;;;;10.48;4.13;;;;;;;;;;6226138;28;20272;-72
2022/05/15 00:40:47;;;;;;;15.85;5.65;;;;;;;;;;6223266;28;20056;-72
2022/05/15 00:43:52;;;;;;;13.82;5.05;;;;;;;;;;6224810;28;20097;-72
2022/05/15 00:46:54;;;;;;;18.25;5.57;;;;;;;;;;6222159;28;20096;-72
2022/05/15 00:49:56;;;;;;;12.15;4.45;;;;;;;;;;6224954;28;20046;-72
2022/05/15 00:53:02;;;;;;;12.03;5.07;;;;;;;;;;6225818;28;20045;-72
2022/05/15 00:56:04;;;;;;;18.38;5.40;;;;;;;;;;6228283;28;20279;-71
2022/05/15 00:59:13;;;;;;;23.63;6.18;;;;;;;;;;6226236;28;21092;-72
2022/05/15 01:02:16;;;;;;;10.30;4.43;;;;;;;;;;6223787;28;20045;-71
2022/05/15 01:05:18;;;;;;;9.15;4.05;;;;;;;;;;6223117;28;20046;-70
2022/05/15 01:08:20;;;;;;;6.47;4.10;;;;;;;;;;6222968;28;20089;-69
2022/05/15 01:11:22;;;;;;;11.27;4.00;;;;;;;;;;6219684;28;20052;-70
2022/05/15 01:14:26;;;;;;;22.23;5.65;;;;;;;;;;6224633;28;20049;-69
2022/05/15 01:17:28;;;;;;;20.25;6.20;;;;;;;;;;6217116;28;20069;-68
2022/05/15 01:20:31;;;;;;;22.95;6.28;;;;;;;;;;6218004;28;20064;-68
2022/05/15 01:23:34;;;;;;;;;;;;;;;;;;6223624;28;20054;-68
2022/05/15 01:26:38;;;;;;;16.75;6.10;;;;;;;;;;6228705;28;19917;-67
2022/05/15 01:29:42;;;;;;;20.75;5.10;;;;;;;;;;6224487;28;20054;-67
2022/05/15 01:32:44;;;;;;;9.80;4.82;;;;;;;;;;6225706;28;20065;-70
2022/05/15 01:35:46;;;;;;;21.17;6.50;;;;;;;;;;6228059;28;20045;-68
2022/05/15 01:38:49;;;;;;;15.07;5.40;;;;;;;;;;6219567;28;20101;-69
2022/05/15 01:41:51;;;;;;;34.15;17.13;;;;;;;;;;6220573;28;20046;-69
2022/05/15 01:44:52;;;;;;;65.78;36.53;;;;;;;;;;6224807;28;20049;-69
2022/05/15 01:47:54;;;;;;;27.73;14.63;;;;;;;;;;6216856;28;20112;-69
2022/05/15 01:50:56;;;;;;;20.92;12.70;;;;;;;;;;6229908;28;20046;-70
2022/05/15 01:53:59;;;;;;;50.95;26.08;;;;;;;;;;6223676;28;20257;-70
2022/05/15 01:57:01;;;;;;;14.10;7.55;;;;;;;;;;6223322;28;20057;-69
2022/05/15 02:00:04;;;;;;;7.88;5.10;;;;;;;;;;6231819;28;20050;-69
2022/05/15 02:03:06;;;;;;;15.73;4.00;;;;;;;;;;6227064;28;20045;-69
2022/05/15 02:06:07;;;;;;;10.85;4.90;;;;;;;;;;6225463;28;20053;-70
2022/05/15 02:09:10;;;;;;;9.30;4.57;;;;;;;;;;6225370;28;20057;-70
2022/05/15 02:12:12;;;;;;;9.02;4.60;;;;;;;;;;6216170;28;20054;-69
2022/05/15 02:15:15;;;;;;;10.02;4.75;;;;;;;;;;6224581;28;20104;-70
2022/05/15 02:18:16;;;;;;;7.77;4.23;;;;;;;;;;6229705;28;20050;-69
2022/05/15 02:21:18;;;;;;;9.43;5.78;;;;;;;;;;6227202;28;20448;-70
2022/05/15 02:24:21;;;;;;;9.88;5.22;;;;;;;;;;6219101;28;20054;-70
2022/05/15 02:27:23;;;;;;;9.45;6.05;;;;;;;;;;6222424;28;20050;-69
2022/05/15 02:30:25;;;;;;;8.70;6.25;;;;;;;;;;6221909;28;20060;-70
2022/05/15 02:33:26;;;;;;;11.85;7.50;;;;;;;;;;6221686;28;20077;-69
2022/05/15 02:36:28;;;;;;;9.32;6.90;;;;;;;;;;6221778;28;20100;-70
2022/05/15 02:39:32;;;;;;;10.63;7.22;;;;;;;;;;6219416;28;20368;-70
2022/05/15 02:42:33;;;;;;;11.13;8.35;;;;;;;;;;6222926;28;20046;-69
2022/05/15 02:45:35;;;;;;;11.65;8.07;;;;;;;;;;6227118;28;20056;-69
2022/05/15 02:51:56;;;;;;;11.15;7.57;;;;;;;;;;6223174;28;20077;-70
2022/05/15 02:54:59;;;;;;;11.25;9.32;;;;;;;;;;6223230;28;20108;-69
2022/05/15 02:58:01;;;;;;;14.43;10.10;;;;;;;;;;6221861;28;20054;-70
2022/05/15 03:01:02;;;;;;;11.88;9.07;;;;;;;;;;6225788;28;20050;-70
2022/05/15 03:04:05;;;;;;;14.00;9.50;;;;;;;;;;6220746;28;20050;-69
2022/05/15 03:07:07;;;;;;;12.27;8.33;;;;;;;;;;6223171;28;20050;-70
2022/05/15 03:10:12;;;;;;;12.35;8.63;;;;;;;;;;6224121;28;20061;-69
2022/05/15 03:13:14;;;;;;;9.93;8.25;;;;;;;;;;6222992;28;20050;-69
2022/05/15 03:16:18;;;;;;;13.40;9.73;;;;;;;;;;6225597;28;20336;-68
2022/05/15 03:19:20;;;;;;;11.77;9.00;;;;;;;;;;6224397;28;20347;-69
2022/05/15 03:22:21;;;;;;;12.95;10.00;;;;;;;;;;6221857;28;20066;-70
2022/05/15 03:25:26;;;;;;;12.32;9.85;;;;;;;;;;6221025;28;20054;-70
2022/05/15 03:28:28;;;;;;;13.68;9.95;;;;;;;;;;6221714;28;20053;-70
2022/05/15 03:31:29;;;;;;;14.32;9.93;;;;;;;;;;6215492;28;20053;-70
2022/05/15 03:34:31;;;;;;;14.63;9.65;;;;;;;;;;6224325;28;20081;-70
2022/05/15 03:37:33;;;;;;;16.05;10.23;;;;;;;;;;6222347;28;20080;-70
2022/05/15 03:40:36;;;;;;;21.65;10.32;;;;;;;;;;6223349;28;20050;-69
2022/05/15 03:43:38;;;;;;;22.40;10.32;;;;;;;;;;6223495;28;20132;-70
2022/05/15 03:46:40;;;;;;;13.63;10.25;;;;;;;;;;6226432;28;20054;-67
2022/05/15 03:49:42;;;;;;;13.43;10.38;;;;;;;;;;6231366;28;20053;-67
2022/05/15 03:52:44;;;;;;;17.83;10.50;;;;;;;;;;6226518;28;20355;-69
2022/05/15 03:55:47;;;;;;;20.33;10.45;;;;;;;;;;6220686;28;20057;-68
2022/05/15 03:58:48;;;;;;;18.67;10.45;;;;;;;;;;6216404;28;20050;-68
2022/05/15 04:01:51;;;;;;;15.35;10.68;;;;;;;;;;6232061;28;20062;-68
2022/05/15 04:04:52;;;;;;;13.32;10.02;;;;;;;;;;6227853;28;20126;-68
2022/05/15 04:07:56;;;;;;;14.85;10.90;;;;;;;;;;6228489;28;20045;-68
2022/05/15 04:10:59;;;;;;;17.70;11.15;;;;;;;;;;6225824;28;20050;-69
2022/05/15 04:14:00;;;;;;;15.55;11.05;;;;;;;;;;6217415;28;20445;-68
2022/05/15 04:17:02;;;;;;;16.52;11.05;;;;;;;;;;6220166;28;20129;-69
2022/05/15 04:20:05;;;;;;;17.15;11.82;;;;;;;;;;6225456;28;20046;-68
2022/05/15 04:23:06;;;;;;;19.35;12.02;;;;;;;;;;6225774;28;20050;-68
2022/05/15 04:26:09;;;;;;;17.42;11.68;;;;;;;;;;6220188;28;20065;-69
2022/05/15 04:29:11;;;;;;;15.15;10.88;;;;;;;;;;6228646;28;20046;-69
2022/05/15 04:32:13;;;;;;;15.20;11.18;;;;;;;;;;6234419;28;20056;-68
2022/05/15 04:35:14;;;;;;;15.50;10.88;;;;;;;;;;6231243;28;20084;-69
2022/05/15 04:38:16;;;;;;;17.50;12.43;;;;;;;;;;6232671;28;20053;-68
2022/05/15 04:41:19;;;;;;;18.75;11.98;;;;;;;;;;6228427;28;20060;-69
2022/05/15 04:44:21;;;;;;;15.02;11.00;;;;;;;;;;6225532;28;20065;-68
2022/05/15 04:47:23;;;;;;;13.88;10.43;;;;;;;;;;6229728;28;20096;-68
2022/05/15 04:50:24;;;;;;;17.95;10.88;;;;;;;;;;6224156;28;20061;-67
2022/05/15 04:53:27;;;;;;;15.73;10.60;;;;;;;;;;6225356;28;20382;-69
2022/05/15 04:56:29;;;;;;;14.80;11.20;;;;;;;;;;6232776;28;20226;-69
2022/05/15 04:59:31;;;;;;;16.23;11.80;;;;;;;;;;6228240;28;20049;-68
2022/05/15 05:02:33;;;;;;;13.82;11.15;;;;;;;;;;6227746;28;20218;-69
2022/05/15 05:05:34;;;;;;;15.70;11.45;;;;;;;;;;6228881;28;20049;-69
2022/05/15 05:08:36;;;;;;;12.35;10.85;;;;;;;;;;6224281;28;20054;-69
2022/05/15 05:11:39;;;;;;;17.38;12.20;;;;;;;;;;6220099;28;20063;-69
2022/05/15 05:14:41;;;;;;;15.63;11.25;;;;;;;;;;6224107;28;20111;-69
2022/05/15 05:17:43;;;;;;;17.75;11.40;;;;;;;;;;6226727;28;20085;-69
2022/05/15 05:20:46;;;;;;;17.05;12.45;;;;;;;;;;6231651;28;20125;-69
2022/05/15 06:32:38;;;;;;;17.13;13.38;;;;;;;;;;6181967;28;20053;-69
2022/05/15 06:35:40;;;;;;;16.65;13.25;;;;;;;;;;6221972;28;20112;-70
2022/05/15 06:38:42;;;;;;;22.20;14.18;;;;;;;;;;6221473;28;20101;-68
2022/05/15 06:41:46;;;;;;;18.45;13.23;;;;;;;;;;6224956;28;20083;-68
2022/05/15 06:44:47;;;;;;;22.08;14.88;;;;;;;;;;6223436;28;20093;-69
2022/05/15 06:47:50;;;;;;;19.60;13.35;;;;;;;;;;6216582;28;20050;-69
2022/05/15 06:50:52;;;;;;;17.15;13.82;;;;;;;;;;6224305;28;20046;-69
2022/05/15 06:53:53;;;;;;;16.67;13.07;;;;;;;;;;6224335;28;20328;-68
2022/05/15 07:00:17;;;;;;;21.63;14.68;;;;;;;;;;6226382;28;20108;-69
2022/05/15 07:03:20;;;;;;;17.00;12.40;;;;;;;;;;6223628;28;20325;-68
2022/05/15 07:06:21;;;;;;;19.02;14.60;;;;;;;;;;6226643;28;20241;-69
2022/05/15 07:09:23;;;;;;;17.95;12.68;;;;;;;;;;6223856;28;20062;-68
2022/05/15 07:12:25;;;;;;;16.52;12.07;;;;;;;;;;6224022;28;20057;-69
2022/05/15 07:15:28;;;;;;;15.10;12.10;;;;;;;;;;6224579;28;20062;-69
2022/05/15 07:18:31;;;;;;;15.82;12.88;;;;;;;;;;6225638;28;20073;-69
2022/05/15 07:21:32;;;;;;;19.05;14.10;;;;;;;;;;6223944;28;20050;-69
2022/05/15 07:24:34;;;;;;;14.82;12.15;;;;;;;;;;6223617;28;20046;-69
2022/05/15 07:27:36;;;;;;;18.83;13.17;;;;;;;;;;6225345;28;20060;-69
2022/05/15 07:30:38;;;;;;;15.40;12.40;;;;;;;;;;6223788;28;20329;-69
2022/05/15 07:33:42;;;;;;;16.05;11.70;;;;;;;;;;6224147;28;20064;-69
2022/05/15 07:36:44;;;;;;;15.10;11.98;;;;;;;;;;6223537;28;20088;-69
2022/05/15 07:39:46;;;;;;;15.98;11.35;;;;;;;;;;6219370;28;20229;-69
2022/05/15 07:42:48;;;;;;;18.50;11.80;;;;;;;;;;6221359;28;20054;-69
2022/05/15 07:45:49;;;;;;;16.33;10.73;;;;;;;;;;6221069;28;20057;-70
2022/05/15 07:48:54;;;;;;;15.45;11.95;;;;;;;;;;6221500;28;20091;-69
2022/05/15 07:51:55;;;;;;;16.02;12.82;;;;;;;;;;6222037;28;20046;-70
2022/05/15 07:54:57;;;;;;;15.32;12.38;;;;;;;;;;6220684;28;20103;-69
2022/05/15 07:57:59;;;;;;;14.38;10.18;;;;;;;;;;6222899;28;20058;-70
2022/05/15 08:01:04;;;;;;;12.05;10.75;;;;;;;;;;6220150;28;20054;-70
2022/05/15 08:04:07;;;;;;;14.20;10.35;;;;;;;;;;6226049;28;20121;-68
2022/05/15 08:10:29;;;;;;;9.27;7.80;;;;;;;;;;6222543;28;20113;-68
2022/05/15 08:13:31;;;;;;;11.50;7.67;;;;;;;;;;6218310;28;20058;-68
2022/05/15 08:16:35;;;;;;;10.35;9.13;;;;;;;;;;6223668;28;20329;-68
2022/05/15 08:26:17;;;;;;;12.80;7.80;;;;;;;;;;6218778;28;20068;-68
2022/05/15 08:29:19;;;;;;;;;;;;;;;;;;6218278;28;20050;-68
2022/05/15 08:32:20;;;;;;;14.48;8.55;;;;;;;;;;6220086;28;19917;-67
2022/05/15 08:35:24;;;;;;;10.82;9.13;;;;;;;;;;6222193;28;20291;-67
2022/05/15 08:38:25;;;;;;;11.48;8.75;;;;;;;;;;6219632;28;20340;-68
2022/05/15 08:41:38;;;;;;;14.00;9.10;;;;;;;;;;6220008;28;20277;-68
2022/05/15 08:44:44;;;;;;;10.00;8.48;;;;;;;;;;6218846;28;20045;-68
2022/05/15 08:47:47;;;;;;;8.70;6.90;;;;;;;;;;6222873;28;20319;-68
2022/05/15 08:50:51;;;;;;;10.30;6.32;;;;;;;;;;6220621;28;20115;-68
2022/05/15 08:53:53;;;;;;;7.13;6.43;;;;;;;;;;6219160;28;20073;-68
2022/05/15 08:56:55;;;;;;;9.60;6.80;;;;;;;;;;6218619;28;20058;-70
2022/05/15 08:59:59;;;;;;;8.93;5.43;;;;;;;;;;6220831;28;20049;-69
2022/05/15 09:03:10;;;;;;;8.98;5.57;;;;;;;;;;6223471;28;20042;-68
2022/05/15 09:06:24;;;;;;;12.20;5.93;;;;;;;;;;6220702;28;20061;-67
2022/05/15 09:09:31;;;;;;;9.80;6.22;;;;;;;;;;6223892;28;20046;-69
2022/05/15 09:12:34;;;;;;;10.07;7.22;;;;;;;;;;6219527;28;20057;-66
2022/05/15 09:15:36;;;;;;;;;;;;;;;;;;6221906;28;20057;-68
2022/05/15 09:18:38;;;;;;;8.47;7.20;;;;;;;;;;6221545;28;19918;-68
2022/05/15 09:21:41;;;;;;;9.45;7.00;;;;;;;;;;6222978;28;20136;-69
2022/05/15 09:24:46;;;;;;;10.30;6.97;;;;;;;;;;6221144;28;20042;-68
2022/05/15 09:27:59;;;;;;;9.23;7.30;;;;;;;;;;6218515;28;20119;-69
2022/05/15 09:31:05;;;;;;;9.65;6.47;;;;;;;;;;6217401;28;20053;-69
2022/05/15 09:34:10;;;;;;;10.55;8.75;;;;;;;;;;6214658;28;20053;-68
2022/05/15 09:44:05;;;;;;;12.38;8.43;;;;;;;;;;6215005;28;20057;-69
2022/05/15 09:47:22;;;;;;;9.52;7.55;;;;;;;;;;6219118;28;20114;-68
2022/05/15 09:50:53;;;;;;;10.70;8.13;;;;;;;;;;6204853;28;20054;-66
2022/05/15 09:53:57;;;;;;;9.88;8.52;;;;;;;;;;6212280;28;23402;-68
2022/05/15 09:57:10;;;;;;;11.45;7.07;;;;;;;;;;6217373;28;20238;-69
2022/05/15 10:00:14;;;;;;;10.93;9.38;;;;;;;;;;6220058;28;20046;-68
2022/05/15 10:03:19;;;;;;;11.43;8.77;;;;;;;;;;6218771;28;20046;-68
2022/05/15 10:06:22;;;;;;;11.82;8.82;;;;;;;;;;6217566;28;20065;-69
2022/05/15 10:09:28;;;;;;;11.52;8.43;;;;;;;;;;6214609;28;20046;-69
2022/05/15 10:12:30;;;;;;;8.55;7.65;;;;;;;;;;6215975;28;20092;-70
2022/05/15 10:18:48;;;;;;;11.38;7.88;;;;;;;;;;6973210;22;20062;-69
2022/05/15 10:21:52;;;;;;;15.15;12.10;;;;;;;;;;6226639;28;20383;-68
2022/05/15 10:24:57;;;;;;;12.20;10.40;;;;;;;;;;6237676;28;20065;-68
2022/05/15 10:28:09;;;;;;;11.57;8.70;;;;;;;;;;6233040;28;20251;-68
2022/05/15 10:31:16;;;;;;;10.23;7.82;;;;;;;;;;6235213;28;20110;-68
2022/05/15 10:34:25;;;;;;;13.85;9.70;;;;;;;;;;6237989;28;20069;-69
2022/05/15 10:38:01;;;;;;;12.25;10.93;;;;;;;;;;6235784;28;20120;-69
2022/05/15 10:41:11;;;;;;;11.70;10.40;;;;;;;;;;6164927;28;20054;-69
2022/05/15 10:44:23;;;;;;;12.10;10.43;;;;;;;;;;6163047;28;20059;-67
2022/05/15 10:47:28;;;;;;;9.87;8.27;;;;;;;;;;6161297;28;20123;-69
2022/05/15 10:50:45;;;;;;;9.40;8.45;;;;;;;;;;6163935;28;20118;-68
2022/05/15 10:57:29;;;;;;;12.65;10.57;;;;;;;;;;6158697;28;20043;-67
2022/05/15 11:00:38;;;;;;;12.13;10.93;;;;;;;;;;6157422;28;20388;-67
2022/05/15 11:03:51;;;;;;;12.80;11.02;;;;;;;;;;6160074;28;20069;-69
2022/05/15 11:07:00;;;;;;;14.07;11.05;;;;;;;;;;6159778;28;20059;-71
2022/05/15 11:10:07;;;;;;;17.35;11.95;;;;;;;;;;6160229;28;20399;-70
2022/05/15 11:13:17;;;;;;;12.13;10.70;;;;;;;;;;6159198;28;20369;-69
2022/05/15 11:16:25;;;;;;;14.18;12.05;;;;;;;;;;6233485;28;20080;-69
2022/05/15 11:19:35;;;;;;;13.40;11.40;;;;;;;;;;6211576;28;20357;-70
2022/05/15 11:22:42;;;;;;;12.07;10.15;;;;;;;;;;6201564;28;20058;-70
2022/05/15 11:25:48;;;;;;;12.57;11.30;;;;;;;;;;6198986;28;20128;-70
2022/05/15 11:28:54;;;;;;;16.63;12.73;;;;;;;;;;6195588;28;20313;-70
2022/05/15 11:31:57;;;;;;;15.13;11.70;;;;;;;;;;6198788;28;20058;-69
2022/05/15 11:35:07;;;;;;;14.00;12.52;;;;;;;;;;6195873;28;20202;-70
2022/05/15 11:38:28;;;;;;;12.18;9.65;;;;;;;;;;6201742;28;20043;-70
2022/05/15 11:41:31;;;;;;;14.23;11.88;;;;;;;;;;6208274;28;20113;-69
2022/05/15 11:44:38;;;;;;;16.83;11.25;;;;;;;;;;6205322;28;20045;-69
2022/05/15 11:47:43;;;;;;;14.15;10.32;;;;;;;;;;6202644;28;20344;-68
2022/05/15 11:50:53;;;;;;;16.33;11.63;;;;;;;;;;6197764;28;20058;-68
2022/05/15 11:53:57;;;;;;;14.30;11.18;;;;;;;;;;6199064;28;20412;-68
2022/05/15 11:56:59;;;;;;;16.45;10.43;;;;;;;;;;6204115;28;20399;-68
2022/05/15 12:00:07;;;;;;;18.42;11.15;;;;;;;;;;6199695;28;20053;-68
2022/05/15 12:03:42;;;;;;;14.93;10.15;;;;;;;;;;6206566;28;20065;-68
2022/05/15 12:06:49;;;;;;;13.18;9.85;;;;;;;;;;6205607;28;20054;-68
2022/05/15 12:09:53;;;;;;;9.93;8.63;;;;;;;;;;6206846;28;20058;-69
2022/05/15 12:13:30;;;;;;;14.93;10.82;;;;;;;;;;6199660;28;20050;-68
2022/05/15 12:16:34;;;;;;;13.05;9.43;;;;;;;;;;6202681;28;20045;-69
2022/05/15 12:19:37;;;;;;;10.13;7.95;;;;;;;;;;6202401;28;20105;-69
2022/05/15 12:22:43;;;;;;;11.20;10.07;;;;;;;;;;6201608;28;20061;-71
2022/05/15 12:25:54;;;;;;;12.27;10.30;;;;;;;;;;6197980;28;20113;-68
2022/05/15 12:29:01;;;;;;;15.90;10.43;;;;;;;;;;6199934;28;20101;-68
2022/05/15 12:32:08;;;;;;;14.70;9.75;;;;;;;;;;6207476;28;20042;-68
2022/05/15 12:35:14;;;;;;;12.45;11.02;;;;;;;;;;6201227;28;20054;-71
2022/05/15 12:38:18;;;;;;;13.82;8.75;;;;;;;;;;6202733;28;20054;-71
2022/05/15 12:41:24;;;;;;;12.23;8.13;;;;;;;;;;6199101;28;20072;-71
2022/05/15 12:44:32;;;;;;;10.18;8.60;;;;;;;;;;6198938;28;20046;-70
2022/05/15 12:47:35;;;;;;;10.23;9.15;;;;;;;;;;6200686;28;20278;-71
2022/05/15 12:50:49;;;;;;;10.50;8.45;;;;;;;;;;6197464;28;20468;-70
2022/05/15 12:53:50;;;;;;;8.98;8.00;;;;;;;;;;6199879;28;20054;-70
2022/05/15 12:56:59;;;;;;;8.45;7.50;;;;;;;;;;6199163;28;20112;-69
2022/05/15 13:00:00;;;;;;;12.10;6.90;;;;;;;;;;6194858;28;20101;-70
2022/05/15 13:03:05;;;;;;;9.20;6.45;;;;;;;;;;6199444;28;20105;-71
2022/05/15 13:06:08;;;;;;;7.10;5.65;;;;;;;;;;6198012;28;20077;-70
2022/05/15 13:09:11;;;;;;;8.73;5.72;;;;;;;;;;6194479;28;20217;-71
2022/05/15 13:12:16;;;;;;;5.82;5.25;;;;;;;;;;6200940;28;20046;-70
2022/05/15 13:15:19;;;;;;;8.68;6.40;;;;;;;;;;6196973;28;20098;-71
2022/05/15 13:18:23;;;;;;;11.77;6.63;;;;;;;;;;6194094;28;20066;-71
2022/05/15 13:21:29;;;;;;;7.78;6.15;;;;;;;;;;6193235;28;20042;-70
2022/05/15 13:24:32;;;;;;;8.30;5.68;;;;;;;;;;6193433;28;20059;-71
2022/05/15 13:27:35;;;;;;;6.45;5.45;;;;;;;;;;6192297;28;20265;-72
2022/05/15 13:30:37;;;;;;;7.13;5.30;;;;;;;;;;6193247;28;20062;-70
2022/05/15 13:33:43;;;;;;;8.48;5.88;;;;;;;;;;6191107;28;20053;-66
2022/05/15 13:36:55;;;;;;;10.25;6.50;;;;;;;;;;6189781;28;20069;-65
2022/05/15 13:43:28;;;;;;;6.05;4.90;;;;;;;;;;6192081;28;20046;-65
2022/05/15 13:46:31;;;;;;;8.35;5.45;;;;;;;;;;6191770;28;20126;-70
2022/05/15 13:49:43;;;;;;;9.15;5.75;;;;;;;;;;6190242;28;20442;-69
2022/05/15 13:52:44;;;;;;;9.27;5.72;;;;;;;;;;6188367;28;20981;-64
2022/05/15 13:55:47;;;;;;;8.20;5.43;;;;;;;;;;6183721;28;20053;-64
2022/05/15 13:58:51;;;;;;;11.57;6.82;;;;;;;;;;6186090;28;20458;-64
2022/05/15 14:02:09;;;;;;;10.75;6.70;;;;;;;;;;6184810;28;20153;-65
2022/05/15 14:05:19;;;;;;;10.30;7.15;;;;;;;;;;6183030;28;20055;-64
2022/05/15 14:08:22;;;;;;;8.10;6.00;;;;;;;;;;6186232;28;20057;-65
2022/05/15 14:15:36;;;;;;;7.35;5.97;;;;;;;;;;6182916;28;20077;-65
2022/05/15 14:18:37;;;;;;;12.50;5.93;;;;;;;;;;6186339;28;20061;-65
2022/05/15 14:21:59;;;;;;;7.47;5.72;;;;;;;;;;6183634;28;20050;-66
2022/05/15 14:25:01;;;;;;;7.70;6.30;;;;;;;;;;6183968;28;21180;-65
2022/05/15 14:28:02;;;;;;;9.13;6.45;;;;;;;;;;6185076;28;20126;-64
2022/05/15 14:31:04;;;;;;;7.65;6.05;;;;;;;;;;6180380;28;21888;-64
2022/05/15 14:34:06;;;;;;;7.97;5.22;;;;;;;;;;6177175;28;20054;-68
2022/05/15 14:37:09;;;;;;;8.07;5.53;;;;;;;;;;6185918;28;20364;-68
2022/05/15 14:40:11;;;;;;;9.50;5.82;;;;;;;;;;6181142;28;20054;-68
2022/05/15 14:43:13;;;;;;;6.72;5.30;;;;;;;;;;6190725;28;20055;-68
2022/05/15 14:46:16;;;;;;;7.05;5.70;;;;;;;;;;6163226;28;20065;-68
2022/05/15 14:49:18;;;;;;;9.05;5.55;;;;;;;;;;6187479;28;20058;-68
2022/05/15 14:52:22;;;;;;;;;;;;;;;;;;6185471;28;20128;-68
2022/05/15 14:58:48;;;;;;;7.60;4.75;;;;;;;;;;6172155;28;20179;-68
2022/05/15 15:01:50;;;;;;;8.18;4.93;;;;;;;;;;6189395;28;20103;-67
2022/05/15 15:04:52;;;;;;;8.90;4.57;;;;;;;;;;6186123;28;20053;-68
2022/05/15 15:07:55;;;;;;;7.20;5.25;;;;;;;;;;6190663;28;20058;-68
2022/05/15 15:11:15;;;;;;;4.75;4.35;;;;;;;;;;6194227;28;20106;-68
2022/05/15 15:14:17;;;;;;;5.75;4.88;;;;;;;;;;6195502;28;20050;-67
2022/05/15 15:17:19;;;;;;;7.20;5.05;;;;;;;;;;6196909;28;20159;-68
2022/05/15 15:20:21;;;;;;;12.97;5.50;;;;;;;;;;6192354;28;20144;-68
2022/05/15 15:23:24;;;;;;;10.40;5.10;;;;;;;;;;6193588;28;20752;-68
2022/05/15 15:26:26;;;;;;;8.75;5.00;;;;;;;;;;6192081;28;20355;-68
2022/05/15 15:29:27;;;;;;;6.65;4.82;;;;;;;;;;6190080;28;20057;-68
2022/05/15 15:32:29;;;;;;;6.67;4.60;;;;;;;;;;6198548;28;20062;-69
2022/05/15 15:35:31;;;;;;;6.83;4.77;;;;;;;;;;6199628;28;20337;-67
2022/05/15 15:38:34;;;;;;;7.82;4.90;;;;;;;;;;6195803;28;20269;-68
2022/05/15 15:41:37;;;;;;;6.13;4.60;;;;;;;;;;6196570;28;20225;-69
2022/05/15 15:44:39;;;;;;;;;;;;;;;;;;6201687;28;20326;-68
2022/05/15 15:47:41;;;;;;;8.43;6.40;;;;;;;;;;6195666;28;19926;-68
2022/05/15 15:50:43;;;;;;;20.27;10.23;;;;;;;;;;6198583;28;20069;-68
2022/05/15 15:53:47;;;;;;;21.02;15.55;;;;;;;;;;6197333;28;20058;-67
2022/05/15 15:56:49;;;;;;;7.90;5.68;;;;;;;;;;6194546;28;20081;-69
2022/05/15 15:59:51;;;;;;;8.40;5.18;;;;;;;;;;6197560;28;20054;-68
2022/05/15 16:02:53;;;;;;;13.38;5.10;;;;;;;;;;6195398;28;20286;-68
2022/05/15 16:05:57;;;;;;;7.25;4.72;;;;;;;;;;6197275;28;20053;-69
2022/05/15 16:09:00;;;;;;;11.23;5.60;;;;;;;;;;6200339;28;20055;-69
2022/05/15 16:12:02;;;;;;;6.88;5.78;;;;;;;;;;6199828;28;20108;-69
2022/05/15 16:15:04;;;;;;;7.85;5.35;;;;;;;;;;6200162;28;20060;-68
2022/05/15 16:18:06;;;;;;;7.00;4.88;;;;;;;;;;6196783;28;20074;-68
2022/05/15 16:21:10;;;;;;;11.02;4.80;;;;;;;;;;6198596;28;20053;-69
2022/05/15 16:24:18;;;;;;;7.20;4.38;;;;;;;;;;6196368;28;20057;-69
2022/05/15 16:27:19;;;;;;;8.95;5.03;;;;;;;;;;6195363;28;20098;-68
2022/05/15 16:30:21;;;;;;;6.03;4.47;;;;;;;;;;6193491;28;20054;-68
2022/05/15 16:33:23;;;;;;;6.87;4.73;;;;;;;;;;6194838;28;20101;-68
2022/05/15 16:36:25;;;;;;;8.35;4.85;;;;;;;;;;6192615;28;20282;-68
2022/05/15 16:39:27;;;;;;;8.20;4.03;;;;;;;;;;6193729;28;20076;-68
2022/05/15 16:42:35;;;;;;;8.05;4.20;;;;;;;;;;6194902;28;20097;-68
2022/05/15 16:45:37;;;;;;;6.28;4.20;;;;;;;;;;6194979;28;20097;-68
2022/05/15 16:48:39;;;;;;;10.27;4.30;;;;;;;;;;6196229;28;20104;-68
2022/05/15 16:51:41;;;;;;;;;;;;;;;;;;6199399;28;20170;-68
2022/05/15 16:54:44;;;;;;;9.07;4.35;;;;;;;;;;6197768;28;19961;-67
2022/05/15 16:57:46;;;;;;;9.00;4.60;;;;;;;;;;6196528;28;20072;-67
2022/05/15 17:00:49;;;;;;;8.07;4.25;;;;;;;;;;6199196;28;20058;-68
2022/05/15 17:03:52;;;;;;;9.75;4.25;;;;;;;;;;6200043;28;22607;-69
2022/05/15 17:06:54;;;;;;;6.10;3.85;;;;;;;;;;6200930;28;20069;-68
2022/05/15 17:09:58;;;;;;;6.43;4.45;;;;;;;;;;6201517;28;20050;-69
2022/05/15 17:13:01;;;;;;;5.85;4.00;;;;;;;;;;6195334;28;20114;-68
2022/05/15 17:16:03;;;;;;;11.73;4.53;;;;;;;;;;6195591;28;20070;-68
2022/05/15 17:19:06;;;;;;;10.38;5.10;;;;;;;;;;6197235;28;20061;-69
2022/05/15 17:22:08;;;;;;;7.93;4.32;;;;;;;;;;6197957;28;20054;-69
2022/05/15 17:25:12;;;;;;;8.10;4.70;;;;;;;;;;6198893;28;20046;-69
2022/05/15 17:34:12;;;;;;;5.82;4.82;;;;;;;;;;6191899;28;20048;-68
2022/05/15 17:34:55;;;;;;;5.82;4.53;;;;;;;;;;6198315;28;20242;-69
2022/05/15 17:37:56;;;;;;;7.63;4.70;;;;;;;;;;6198546;28;20109;-69
2022/05/15 17:41:00;;;;;;;7.40;4.65;;;;;;;;;;6195815;28;20054;-68
2022/05/15 17:44:02;;;;;;;12.75;4.55;;;;;;;;;;6196070;28;20117;-69
2022/05/15 17:47:04;;;;;;;9.25;6.22;;;;;;;;;;6195642;28;20061;-69
2022/05/15 17:50:09;;;;;;;8.45;4.50;;;;;;;;;;6195670;28;20061;-69
2022/05/15 17:53:10;;;;;;;6.80;4.28;;;;;;;;;;6196177;28;20058;-69
2022/05/15 17:56:14;;;;;;;6.80;4.43;;;;;;;;;;6194743;28;20121;-69
2022/05/15 17:59:16;;;;;;;8.05;4.20;;;;;;;;;;6193586;28;20395;-70
2022/05/15 18:02:19;;;;;;;8.43;3.60;;;;;;;;;;6198094;28;20380;-68
2022/05/15 18:05:20;;;;;;;;;;;;;;;;;;6199114;28;20053;-68
2022/05/15 18:08:22;;;;;;;8.38;3.50;;;;;;;;;;6195503;28;20150;-68
2022/05/15 18:11:25;;;;;;;6.90;3.78;;;;;;;;;;6197912;28;20050;-67
2022/05/15 18:14:27;;;;;;;6.55;3.47;;;;;;;;;;6198784;28;20061;-69
2022/05/15 18:17:29;;;;;;;9.68;4.15;;;;;;;;;;6197816;28;20062;-67
2022/05/15 18:20:32;;;;;;;6.22;3.88;;;;;;;;;;6195077;28;20058;-69
2022/05/15 18:23:35;;;;;;;12.75;4.55;;;;;;;;;;6194240;28;20153;-68
2022/05/15 18:26:38;;;;;;;;;;;;;;;;;;6197466;28;20055;-68
2022/05/15 18:29:40;;;;;;;7.93;3.60;;;;;;;;;;6196131;28;19918;-68
2022/05/15 18:32:43;;;;;;;4.85;2.88;;;;;;;;;;6192300;28;20062;-67
2022/05/15 18:35:44;;;;;;;;;;;;;;;;;;6191073;28;20127;-67
2022/05/15 18:38:46;;;;;;;6.82;3.60;;;;;;;;;;6197160;28;19917;-68
2022/05/15 18:41:53;;;;;;;5.93;3.30;;;;;;;;;;6198303;28;20345;-68
2022/05/15 18:44:55;;;;;;;10.15;3.30;;;;;;;;;;6197892;28;20062;-67
2022/05/15 18:47:57;;;;;;;9.55;3.75;;;;;;;;;;6203614;28;20059;-69
2022/05/15 18:57:53;;;;;;;9.68;3.40;;;;;;;;;;6169035;28;20449;-68
2022/05/15 19:00:55;;;;;;;10.02;3.63;;;;;;;;;;6172928;28;20051;-68
2022/05/15 19:03:56;;;;;;;6.15;3.20;;;;;;;;;;6172555;28;20062;-64
2022/05/15 19:06:58;;;;;;;6.00;3.42;;;;;;;;;;6170404;28;20102;-67
2022/05/15 19:10:00;;;;;;;8.82;3.90;;;;;;;;;;6168166;28;20579;-69
2022/05/15 19:13:03;;;;;;;10.35;3.60;;;;;;;;;;6174420;28;20061;-66
2022/05/15 19:16:05;;;;;;;12.27;3.70;;;;;;;;;;6174542;28;20078;-66
2022/05/15 19:19:08;;;;;;;9.48;3.30;;;;;;;;;;6170439;28;21535;-66
2022/05/15 19:22:10;;;;;;;10.43;3.75;;;;;;;;;;6165236;28;20058;-68
2022/05/15 19:25:12;;;;;;;9.77;3.55;;;;;;;;;;6130976;28;20051;-66
2022/05/15 19:28:16;;;;;;;10.32;3.45;;;;;;;;;;6179770;28;20054;-67
2022/05/15 19:31:18;;;;;;;9.38;3.50;;;;;;;;;;6195900;28;20116;-66
2022/05/15 19:34:20;;;;;;;8.75;4.15;;;;;;;;;;6198888;28;20065;-66
2022/05/15 19:37:22;;;;;;;9.02;4.85;;;;;;;;;;6205126;28;20124;-66
2022/05/15 19:40:24;;;;;;;9.75;4.68;;;;;;;;;;6198938;28;20050;-66
2022/05/15 19:43:27;;;;;;;5.22;3.50;;;;;;;;;;6200377;28;20337;-66
2022/05/15 19:46:29;;;;;;;8.40;3.45;;;;;;;;;;6196031;28;20269;-65
2022/05/15 19:49:33;;;;;;;6.22;3.40;;;;;;;;;;6204844;28;20069;-67
2022/05/15 19:52:34;;;;;;;10.00;3.83;;;;;;;;;;6202019;28;20066;-66
2022/05/15 19:55:36;;;;;;;9.13;3.75;;;;;;;;;;6193091;28;20054;-66
2022/05/15 19:58:39;;;;;;;6.35;3.85;;;;;;;;;;6202549;28;20062;-66
2022/05/15 20:01:42;;;;;;;5.85;3.55;;;;;;;;;;6202869;28;20058;-66
2022/05/15 20:11:33;;;;;;;7.20;3.42;;;;;;;;;;6203829;28;20311;-66
2022/05/15 20:14:36;;;;;;;7.38;4.15;;;;;;;;;;6200269;28;20074;-67
2022/05/15 20:17:39;;;;;;;6.40;3.45;;;;;;;;;;6199082;28;20061;-67